createdAt,value
2018-04-24T00:00:18.297Z,97.00
2018-04-24T00:02:45.724Z,97.00
2018-04-24T00:05:13.926Z,97.00
2018-04-24T00:07:41.365Z,97.00
2018-04-24T00:10:09.566Z,96.90
2018-04-24T00:12:36.992Z,96.90
2018-04-24T00:15:04.423Z,96.80
2018-04-24T00:17:31.865Z,96.90
2018-04-24T00:19:59.306Z,96.90
2018-04-24T00:22:26.726Z,96.80
2018-04-24T00:24:54.918Z,96.90
2018-04-24T00:27:22.351Z,96.80
2018-04-24T00:29:49.776Z,96.90
2018-04-24T00:32:17.194Z,97.20
2018-04-24T00:34:44.622Z,97.50
2018-04-24T00:37:12.817Z,97.80
2018-04-24T00:39:40.258Z,97.80
2018-04-24T00:42:07.669Z,98.00
2018-04-24T00:44:35.345Z,98.10
2018-04-24T00:47:02.770Z,98.00
2018-04-24T00:49:30.194Z,97.90
2018-04-24T00:51:58.399Z,97.90
2018-04-24T00:54:25.821Z,97.90
2018-04-24T00:56:54.371Z,97.70
2018-04-24T00:59:21.793Z,97.70
2018-04-24T01:01:49.221Z,97.50
2018-04-24T01:04:17.408Z,97.60
2018-04-24T01:06:45.626Z,97.60
2018-04-24T01:09:13.029Z,97.60
2018-04-24T01:11:41.231Z,97.70
2018-04-24T01:14:08.652Z,97.70
2018-04-24T01:16:36.088Z,97.70
2018-04-24T01:19:03.508Z,97.70
2018-04-24T01:21:30.943Z,97.80
2018-04-24T01:23:59.143Z,97.70
2018-04-24T01:26:26.587Z,97.70
2018-04-24T01:28:54.006Z,97.80
2018-04-24T01:31:21.455Z,97.80
2018-04-24T01:33:48.885Z,97.80
2018-04-24T01:36:17.090Z,97.60
2018-04-24T01:38:44.522Z,97.60
2018-04-24T01:41:11.951Z,97.60
2018-04-24T01:43:39.374Z,97.70
2018-04-24T01:46:06.803Z,97.70
2018-04-24T01:48:34.243Z,97.60
2018-04-24T01:51:01.665Z,97.60
2018-04-24T01:53:30.016Z,97.90
2018-04-24T01:55:57.425Z,97.90
2018-04-24T01:58:24.846Z,97.90
2018-04-24T02:00:53.055Z,98.00
2018-04-24T02:03:20.481Z,97.80
2018-04-24T02:05:47.915Z,97.70
2018-04-24T02:08:15.367Z,97.80
2018-04-24T02:10:42.805Z,98.10
2018-04-24T02:13:10.568Z,98.50
2018-04-24T02:15:37.989Z,98.70
2018-04-24T02:18:06.181Z,98.40
2018-04-24T02:20:33.608Z,98.40
2018-04-24T02:23:01.035Z,98.30
2018-04-24T02:25:28.467Z,98.20
2018-04-24T02:27:55.894Z,98.00
2018-04-24T02:30:24.104Z,98.20
2018-04-24T02:32:51.561Z,98.20
2018-04-24T02:35:19.020Z,98.30
2018-04-24T02:37:46.427Z,98.40
2018-04-24T02:40:14.633Z,98.70
2018-04-24T02:42:42.064Z,98.30
2018-04-24T02:45:10.253Z,98.30
2018-04-24T02:47:37.689Z,98.30
2018-04-24T02:50:05.899Z,98.70
2018-04-24T02:52:33.326Z,98.30
2018-04-24T02:55:01.551Z,98.70
2018-04-24T02:57:28.962Z,98.60
2018-04-24T02:59:57.179Z,99.10
2018-04-24T03:02:24.627Z,99.00
2018-04-24T03:04:52.051Z,99.20
2018-04-24T03:07:20.250Z,99.30
2018-04-24T03:09:47.704Z,99.20
2018-04-24T03:12:15.882Z,99.10
2018-04-24T03:14:43.317Z,99.10
2018-04-24T03:17:11.523Z,99.10
2018-04-24T03:19:38.965Z,99.10
2018-04-24T03:22:07.174Z,99.20
2018-04-24T03:24:34.623Z,99.10
2018-04-24T03:27:02.054Z,99.20
2018-04-24T03:29:30.271Z,99.20
2018-04-24T03:31:57.710Z,99.20
2018-04-24T03:34:25.150Z,99.30
2018-04-24T03:36:52.594Z,99.30
2018-04-24T03:39:20.024Z,99.40
2018-04-24T03:41:47.459Z,99.30
2018-04-24T03:44:14.886Z,99.20
2018-04-24T03:46:42.363Z,99.10
2018-04-24T03:49:09.770Z,99.10
2018-04-24T03:51:37.198Z,99.20
2018-04-24T03:54:04.630Z,99.20
2018-04-24T03:56:32.266Z,99.30
2018-04-24T03:59:00.468Z,99.30
2018-04-24T04:01:27.890Z,99.30
2018-04-24T04:03:56.117Z,99.20
2018-04-24T04:06:23.530Z,99.10
2018-04-24T04:08:51.717Z,98.80
2018-04-24T04:11:19.149Z,98.80
2018-04-24T04:13:47.359Z,99.00
2018-04-24T04:16:15.010Z,98.90
2018-04-24T04:18:54.311Z,99.10
2018-04-24T04:21:33.706Z,99.20
2018-04-24T04:24:13.011Z,99.20
2018-04-24T04:26:41.217Z,99.40
2018-04-24T04:29:08.646Z,99.40
2018-04-24T04:31:36.088Z,99.50
2018-04-24T04:34:04.287Z,99.50
2018-04-24T04:36:31.727Z,99.50
2018-04-24T04:39:53.704Z,99.50
2018-04-24T04:42:21.167Z,99.50
2018-04-24T04:44:49.873Z,99.50
2018-04-24T04:47:17.334Z,99.60
2018-04-24T04:49:44.786Z,99.60
2018-04-24T04:52:12.245Z,99.70
2018-04-24T04:54:39.699Z,99.80
2018-04-24T04:57:07.186Z,99.80
2018-04-24T04:59:34.615Z,99.80
2018-04-24T05:02:02.064Z,99.80
2018-04-24T05:04:29.534Z,99.70
2018-04-24T05:06:56.977Z,99.70
2018-04-24T05:09:24.473Z,99.70
2018-04-24T05:11:51.941Z,99.80
2018-04-24T05:14:20.154Z,99.90
2018-04-24T05:16:47.606Z,99.70
2018-04-24T05:19:15.058Z,99.60
2018-04-24T05:21:42.496Z,99.60
2018-04-24T05:24:10.734Z,99.60
2018-04-24T05:26:38.299Z,99.50
2018-04-24T05:29:05.696Z,99.60
2018-04-24T05:31:33.098Z,99.70
2018-04-24T05:34:00.542Z,99.80
2018-04-24T05:36:27.996Z,99.90
2018-04-24T05:38:55.466Z,99.90
2018-04-24T05:41:22.923Z,99.90
2018-04-24T05:43:50.388Z,99.90
2018-04-24T05:46:17.841Z,99.90
2018-04-24T05:48:45.298Z,99.90
2018-04-24T05:51:12.746Z,99.90
2018-04-24T05:53:40.212Z,99.90
2018-04-24T05:56:07.665Z,99.90
2018-04-24T05:58:35.141Z,99.90
2018-04-24T06:01:03.350Z,99.90
2018-04-24T06:03:30.791Z,99.90
2018-04-24T06:05:58.257Z,99.70
2018-04-24T06:08:25.784Z,99.20
2018-04-24T06:10:53.172Z,99.00
2018-04-24T06:13:20.626Z,99.10
2018-04-24T06:15:48.085Z,99.20
2018-04-24T06:18:15.535Z,99.20
2018-04-24T06:20:43.010Z,98.60
2018-04-24T06:23:10.471Z,97.20
2018-04-24T06:25:37.904Z,95.60
2018-04-24T06:28:05.811Z,94.80
2018-04-24T06:30:34.019Z,91.50
2018-04-24T06:33:01.476Z,91.40
2018-04-24T06:35:28.927Z,90.80
2018-04-24T06:37:56.383Z,90.70
2018-04-24T06:40:23.820Z,90.80
2018-04-24T06:42:51.288Z,90.40
2018-04-24T06:45:18.750Z,90.30
2018-04-24T06:47:46.217Z,90.70
2018-04-24T06:50:13.658Z,90.60
2018-04-24T06:52:41.113Z,90.00
2018-04-24T06:55:08.655Z,89.20
2018-04-24T06:57:36.028Z,88.20
2018-04-24T07:00:03.475Z,86.30
2018-04-24T07:02:30.930Z,84.30
2018-04-24T07:09:36.141Z,83.10
2018-04-24T07:12:03.577Z,84.40
2018-04-24T07:14:31.037Z,85.40
2018-04-24T07:16:58.569Z,86.20
2018-04-24T07:19:25.915Z,87.10
2018-04-24T07:21:53.373Z,86.40
2018-04-24T07:24:20.919Z,85.00
2018-04-24T07:26:48.372Z,84.20
2018-04-24T07:29:15.817Z,80.50
2018-04-24T07:31:43.264Z,79.40
2018-04-24T07:34:10.721Z,78.80
2018-04-24T07:36:38.162Z,77.30
2018-04-24T07:39:06.389Z,73.40
2018-04-24T07:41:33.833Z,73.30
2018-04-24T07:44:01.299Z,73.00
2018-04-24T07:46:28.822Z,72.80
2018-04-24T07:48:56.189Z,70.40
2018-04-24T07:51:23.665Z,68.10
2018-04-24T07:53:51.105Z,66.50
2018-04-24T07:56:18.541Z,65.80
2018-04-24T07:58:45.992Z,66.10
2018-04-24T08:01:13.452Z,62.60
2018-04-24T08:03:40.912Z,61.20
2018-04-24T08:06:08.369Z,60.60
2018-04-24T08:10:54.699Z,59.30
2018-04-24T08:13:22.133Z,56.80
2018-04-24T08:15:50.356Z,56.20
2018-04-24T08:18:17.788Z,56.20
2018-04-24T08:20:45.253Z,55.90
2018-04-24T08:23:12.694Z,57.00
2018-04-24T08:25:40.158Z,56.80
2018-04-24T08:28:07.620Z,58.20
2018-04-24T08:30:35.060Z,56.80
2018-04-24T08:33:02.526Z,57.30
2018-04-24T08:35:29.982Z,56.40
2018-04-24T08:37:57.448Z,57.60
2018-04-24T08:40:24.888Z,56.00
2018-04-24T08:42:53.128Z,55.30
2018-04-24T08:45:20.587Z,55.20
2018-04-24T08:47:48.028Z,53.40
2018-04-24T08:50:15.484Z,50.40
2018-04-24T08:52:42.953Z,52.00
2018-04-24T08:55:10.401Z,51.60
2018-04-24T08:57:37.852Z,53.80
2018-04-24T09:00:05.298Z,53.40
2018-04-24T09:02:32.766Z,53.80
2018-04-24T09:05:00.210Z,55.00
2018-04-24T09:07:27.657Z,57.00
2018-04-24T09:09:55.108Z,57.00
2018-04-24T09:12:22.576Z,57.40
2018-04-24T09:14:50.035Z,56.00
2018-04-24T09:17:17.492Z,56.20
2018-04-24T09:19:44.940Z,51.40
2018-04-24T09:24:14.749Z,47.90
2018-04-24T09:26:42.964Z,47.60
2018-04-24T09:29:10.403Z,47.60
2018-04-24T09:31:43.842Z,48.30
2018-04-24T09:34:11.278Z,46.90
2018-04-24T09:36:38.737Z,47.00
2018-04-24T09:39:07.848Z,46.40
2018-04-24T09:41:35.193Z,46.20
2018-04-24T09:44:02.681Z,44.90
2018-04-24T09:46:30.121Z,44.30
2018-04-24T09:48:58.431Z,43.80
2018-04-24T09:51:25.854Z,43.80
2018-04-24T09:53:53.267Z,42.70
2018-04-24T09:56:20.731Z,44.10
2018-04-24T09:58:48.181Z,43.30
2018-04-24T10:01:15.642Z,43.90
2018-04-24T10:03:43.099Z,43.50
2018-04-24T10:06:10.561Z,42.50
2018-04-24T10:08:38.058Z,41.00
2018-04-24T10:11:05.522Z,40.60
2018-04-24T10:13:32.988Z,41.10
2018-04-24T10:16:00.418Z,40.40
2018-04-24T10:18:27.862Z,39.10
2018-04-24T10:20:56.083Z,38.50
2018-04-24T10:23:23.538Z,38.40
2018-04-24T10:25:50.981Z,40.20
2018-04-24T10:28:18.449Z,38.60
2018-04-24T10:30:45.910Z,38.70
2018-04-24T10:33:13.360Z,37.50
2018-04-24T10:35:40.836Z,39.00
2018-04-24T10:38:08.276Z,37.10
2018-04-24T10:40:35.736Z,36.70
2018-04-24T10:43:03.186Z,36.10
2018-04-24T10:45:30.633Z,36.80
2018-04-24T10:47:58.097Z,35.40
2018-04-24T10:50:25.541Z,34.40
2018-04-24T10:52:53.001Z,35.20
2018-04-24T10:55:20.457Z,36.50
2018-04-24T10:57:47.915Z,35.30
2018-04-24T11:00:15.370Z,34.60
2018-04-24T11:02:42.828Z,35.80
2018-04-24T11:05:10.264Z,36.80
2018-04-24T11:07:37.706Z,37.20
2018-04-24T11:10:05.154Z,37.10
2018-04-24T11:12:33.354Z,33.70
2018-04-24T11:15:00.808Z,33.70
2018-04-24T11:17:28.256Z,34.50
2018-04-24T11:19:55.714Z,34.40
2018-04-24T11:22:23.173Z,32.60
2018-04-24T11:24:50.653Z,33.60
2018-04-24T11:27:18.117Z,33.70
2018-04-24T11:29:45.566Z,35.30
2018-04-24T11:32:13.816Z,34.80
2018-04-24T11:34:41.276Z,34.90
2018-04-24T11:37:08.713Z,35.80
2018-04-24T11:39:36.161Z,35.50
2018-04-24T11:42:03.608Z,35.00
2018-04-24T11:44:31.848Z,33.90
2018-04-24T11:46:59.294Z,33.90
2018-04-24T11:49:26.751Z,33.40
2018-04-24T11:51:54.207Z,35.50
2018-04-24T11:54:21.647Z,33.70
2018-04-24T11:56:49.108Z,34.50
2018-04-24T11:59:16.569Z,33.60
2018-04-24T12:01:44.017Z,33.40
2018-04-24T12:04:11.478Z,31.80
2018-04-24T12:06:38.929Z,32.40
2018-04-24T12:09:06.393Z,32.70
2018-04-24T12:11:33.858Z,33.00
2018-04-24T12:14:01.303Z,32.40
2018-04-24T12:16:28.754Z,31.50
2018-04-24T12:18:56.213Z,32.80
2018-04-24T12:21:23.669Z,32.70
2018-04-24T12:23:51.147Z,33.30
2018-04-24T12:26:19.353Z,31.60
2018-04-24T12:28:46.799Z,31.60
2018-04-24T12:31:14.266Z,32.00
2018-04-24T12:33:41.705Z,32.00
2018-04-24T12:36:09.157Z,32.10
2018-04-24T12:38:36.622Z,32.20
2018-04-24T12:41:04.069Z,33.10
2018-04-24T12:43:31.500Z,33.00
2018-04-24T12:45:59.737Z,31.30
2018-04-24T12:48:27.946Z,31.50
2018-04-24T12:50:56.166Z,32.10
2018-04-24T12:53:23.638Z,32.20
2018-04-24T12:55:51.094Z,32.20
2018-04-24T12:58:18.559Z,32.70
2018-04-24T13:01:32.451Z,31.70
2018-04-24T13:03:59.909Z,32.50
2018-04-24T13:06:27.368Z,31.10
2018-04-24T13:08:54.831Z,32.70
2018-04-24T13:11:22.284Z,31.60
2018-04-24T13:26:03.276Z,31.10
2018-04-24T13:28:30.720Z,29.80
2018-04-24T13:30:58.161Z,30.40
2018-04-24T13:33:25.624Z,31.90
2018-04-24T13:35:53.086Z,30.70
2018-04-24T13:38:20.545Z,31.50
2018-04-24T13:40:47.993Z,31.00
2018-04-24T13:45:43.474Z,30.30
2018-04-24T13:48:10.953Z,31.10
2018-04-24T13:50:38.389Z,31.00
2018-04-24T13:53:05.854Z,30.90
2018-04-24T13:55:33.322Z,29.20
2018-04-24T13:58:00.761Z,30.10
2018-04-24T14:00:28.201Z,29.70
2018-04-24T14:02:56.428Z,29.60
2018-04-24T14:05:23.910Z,29.10
2018-04-24T14:07:51.367Z,29.50
2018-04-24T14:10:18.814Z,27.50
2018-04-24T14:12:46.252Z,27.60
2018-04-24T14:15:14.525Z,27.70
2018-04-24T14:17:42.028Z,28.50
2018-04-24T14:20:09.484Z,28.60
2018-04-24T14:22:36.927Z,29.30
2018-04-24T14:25:04.414Z,28.90
2018-04-24T14:27:31.855Z,29.10
2018-04-24T14:29:59.312Z,27.40
2018-04-24T14:32:26.768Z,28.20
2018-04-24T14:34:54.973Z,27.80
2018-04-24T14:37:23.179Z,27.90
2018-04-24T14:39:50.638Z,27.90
2018-04-24T14:42:21.919Z,28.50
2018-04-24T14:44:49.373Z,29.00
2018-04-24T14:47:16.840Z,28.70
2018-04-24T14:49:44.298Z,28.60
2018-04-24T14:52:11.820Z,27.80
2018-04-24T14:54:39.251Z,28.30
2018-04-24T14:57:06.704Z,28.30
2018-04-24T14:59:34.917Z,29.20
2018-04-24T15:02:02.384Z,29.10
2018-04-24T15:04:29.842Z,29.10
2018-04-24T15:06:57.287Z,28.70
2018-04-24T15:09:25.051Z,29.00
2018-04-24T15:11:53.737Z,28.10
2018-04-24T15:14:21.244Z,28.10
2018-04-24T15:16:49.465Z,28.70
2018-04-24T15:19:16.917Z,28.30
2018-04-24T15:21:44.353Z,27.20
2018-04-24T15:24:11.827Z,28.60
2018-04-24T15:26:39.275Z,28.50
2018-04-24T15:29:06.753Z,28.10
2018-04-24T15:31:34.194Z,27.60
2018-04-24T15:34:01.671Z,27.20
2018-04-24T15:36:30.119Z,27.10
2018-04-24T15:38:57.545Z,27.70
2018-04-24T15:41:25.778Z,28.20
2018-04-24T15:43:54.174Z,28.20
2018-04-24T15:46:21.631Z,28.30
2018-04-24T15:48:49.069Z,28.50
2018-04-24T15:51:16.523Z,28.40
2018-04-24T15:53:44.047Z,28.30
2018-04-24T15:56:11.504Z,27.90
2018-04-24T15:58:38.944Z,28.10
2018-04-24T16:01:06.717Z,27.90
2018-04-24T16:03:34.185Z,27.20
2018-04-24T16:06:01.626Z,27.10
2018-04-24T16:08:29.074Z,27.80
2018-04-24T16:10:56.531Z,28.30
2018-04-24T16:13:23.976Z,28.20
2018-04-24T16:15:51.411Z,28.30
2018-04-24T16:18:19.685Z,27.60
2018-04-24T16:20:47.066Z,27.60
2018-04-24T16:23:14.531Z,29.20
2018-04-24T16:25:41.994Z,27.90
2018-04-24T16:28:09.448Z,28.30
2018-04-24T16:30:36.898Z,27.50
2018-04-24T16:33:04.349Z,28.00
2018-04-24T16:35:31.814Z,29.00
2018-04-24T16:37:59.263Z,29.40
2018-04-24T16:40:26.723Z,31.30
2018-04-24T16:42:54.202Z,32.80
2018-04-24T16:45:21.649Z,35.60
2018-04-24T16:47:49.115Z,36.60
2018-04-24T16:50:16.570Z,35.60
2018-04-24T16:52:44.035Z,39.80
2018-04-24T16:55:11.479Z,39.00
2018-04-24T16:57:38.949Z,41.40
2018-04-24T17:00:06.490Z,43.30
2018-04-24T17:02:33.949Z,44.40
2018-04-24T17:05:01.408Z,45.40
2018-04-24T17:07:28.863Z,45.50
2018-04-24T17:09:56.333Z,46.40
2018-04-24T17:12:23.924Z,47.20
2018-04-24T17:14:51.387Z,48.90
2018-04-24T17:17:18.827Z,49.40
2018-04-24T17:19:46.294Z,49.30
2018-04-24T17:22:13.746Z,50.20
2018-04-24T17:24:41.193Z,51.40
2018-04-24T17:27:08.704Z,51.40
2018-04-24T17:29:37.001Z,53.10
2018-04-24T17:32:10.321Z,53.00
2018-04-24T17:34:37.771Z,53.40
2018-04-24T17:37:05.249Z,54.30
2018-04-24T17:39:32.688Z,55.60
2018-04-24T17:42:00.136Z,55.10
2018-04-24T17:44:27.566Z,54.90
2018-04-24T17:46:55.004Z,55.70
2018-04-24T17:49:23.247Z,57.00
2018-04-24T17:51:51.434Z,56.40
2018-04-24T17:54:18.871Z,56.30
2018-04-24T17:57:05.536Z,57.80
2018-04-24T17:59:32.889Z,57.80
2018-04-24T18:02:00.325Z,58.60
2018-04-24T18:04:27.847Z,58.40
2018-04-24T18:06:55.353Z,58.90
2018-04-24T18:09:22.822Z,59.80
2018-04-24T18:11:51.230Z,60.70
2018-04-24T18:14:18.678Z,61.90
2018-04-24T18:16:46.118Z,62.30
2018-04-24T18:19:13.566Z,62.80
2018-04-24T18:21:40.995Z,63.00
2018-04-24T18:24:08.441Z,63.60
2018-04-24T18:26:35.874Z,64.20
2018-04-24T18:29:04.071Z,65.10
2018-04-24T18:31:31.527Z,65.10
2018-04-24T18:33:58.970Z,65.70
2018-04-24T18:36:27.175Z,66.40
2018-04-24T18:38:54.631Z,66.30
2018-04-24T18:41:22.060Z,66.90
2018-04-24T18:43:50.276Z,68.10
2018-04-24T18:46:17.702Z,68.00
2018-04-24T18:48:45.130Z,68.60
2018-04-24T18:51:13.330Z,71.40
2018-04-24T18:53:40.783Z,70.90
2018-04-24T18:56:08.424Z,72.80
2018-04-24T18:58:37.355Z,74.00
2018-04-24T19:01:05.343Z,74.90
2018-04-24T19:03:32.798Z,75.20
2018-04-24T19:06:00.237Z,75.70
2018-04-24T19:08:27.689Z,76.60
2018-04-24T19:10:55.181Z,77.10
2018-04-24T19:13:22.678Z,77.80
2018-04-24T19:15:50.152Z,77.10
2018-04-24T19:18:17.587Z,76.60
2018-04-24T19:20:45.040Z,76.20
2018-04-24T19:23:12.513Z,76.30
2018-04-24T19:25:42.896Z,76.60
2018-04-24T19:28:11.097Z,77.20
2018-04-24T19:30:38.570Z,77.10
2018-04-24T19:33:06.023Z,77.50
2018-04-24T19:35:33.489Z,78.10
2018-04-24T19:38:01.011Z,78.50
2018-04-24T19:40:34.220Z,79.40
2018-04-24T19:43:02.191Z,79.80
2018-04-24T19:45:30.160Z,80.20
2018-04-24T19:47:57.708Z,80.80
2018-04-24T19:50:25.907Z,80.60
2018-04-24T19:52:53.372Z,80.80
2018-04-24T19:55:25.817Z,81.30
2018-04-24T19:57:53.286Z,81.20
2018-04-24T20:00:20.775Z,81.60
2018-04-24T20:02:48.236Z,82.40
2018-04-24T20:05:16.465Z,83.90
2018-04-24T20:07:43.920Z,83.90
2018-04-24T20:10:11.394Z,84.50
2018-04-24T20:12:38.901Z,85.00
2018-04-24T20:15:06.353Z,85.70
2018-04-24T20:17:33.864Z,85.40
2018-04-24T20:20:01.337Z,85.20
2018-04-24T20:22:29.571Z,86.10
2018-04-24T20:24:57.023Z,86.10
2018-04-24T20:27:24.481Z,86.00
2018-04-24T20:29:51.939Z,86.70
2018-04-24T20:32:19.447Z,86.80
2018-04-24T20:34:46.875Z,86.50
2018-04-24T20:37:14.333Z,87.00
2018-04-24T20:39:41.785Z,87.30
2018-04-24T20:42:09.992Z,87.60
2018-04-24T20:44:37.448Z,87.60
2018-04-24T20:47:04.897Z,89.00
2018-04-24T20:49:32.375Z,89.50
2018-04-24T20:51:59.844Z,90.40
2018-04-24T20:54:27.332Z,90.30
2018-04-24T20:56:54.786Z,90.80
2018-04-24T20:59:22.238Z,91.00
2018-04-24T21:01:49.700Z,90.50
2018-04-24T21:04:17.917Z,90.70
2018-04-24T21:06:45.676Z,90.60
2018-04-24T21:09:13.130Z,91.10
2018-04-24T21:11:40.590Z,91.60
2018-04-24T21:14:08.032Z,91.60
2018-04-24T21:16:35.491Z,91.70
2018-04-24T21:19:02.950Z,92.00
2018-04-24T21:21:30.425Z,92.00
2018-04-24T21:23:57.879Z,92.20
2018-04-24T21:26:25.334Z,92.30
2018-04-24T21:28:52.803Z,92.30
2018-04-24T21:31:20.257Z,92.30
2018-04-24T21:33:47.709Z,92.30
2018-04-24T21:36:15.169Z,92.40
2018-04-24T21:38:42.638Z,92.50
2018-04-24T21:41:10.101Z,92.60
2018-04-24T21:43:37.569Z,92.60
2018-04-24T21:46:05.813Z,93.10
2018-04-24T21:48:33.241Z,93.00
2018-04-24T21:51:00.724Z,93.10
2018-04-24T21:53:28.161Z,93.30
2018-04-24T21:55:55.615Z,93.40
2018-04-24T21:58:23.858Z,93.80
2018-04-24T22:00:51.308Z,93.70
2018-04-24T22:03:18.776Z,93.90
2018-04-24T22:05:46.223Z,93.90
2018-04-24T22:08:13.668Z,94.00
2018-04-24T22:10:41.135Z,94.20
2018-04-24T22:13:08.568Z,94.30
2018-04-24T22:15:36.793Z,94.40
2018-04-24T22:18:04.226Z,94.30
2018-04-24T22:20:31.684Z,94.50
2018-04-24T22:22:59.143Z,94.60
2018-04-24T22:25:26.591Z,94.60
2018-04-24T22:27:54.055Z,94.80
2018-04-24T22:30:21.504Z,94.80
2018-04-24T22:32:48.982Z,94.90
2018-04-24T22:35:16.443Z,95.00
2018-04-24T22:37:43.893Z,95.00
2018-04-24T22:40:11.357Z,95.10
2018-04-24T22:42:38.802Z,95.10
2018-04-24T22:45:06.246Z,95.20
2018-04-24T22:47:33.698Z,95.30
2018-04-24T22:50:01.186Z,95.40
2018-04-24T22:52:28.641Z,95.40
2018-04-24T22:54:56.074Z,95.40
2018-04-24T22:57:23.529Z,95.50
2018-04-24T22:59:50.971Z,95.50
2018-04-24T23:02:18.506Z,95.50
2018-04-24T23:04:45.944Z,95.60
2018-04-24T23:07:13.404Z,95.90
2018-04-24T23:09:53.396Z,95.90
2018-04-24T23:12:32.885Z,95.90
2018-04-24T23:15:12.314Z,95.80
2018-04-24T23:17:52.509Z,95.90
2018-04-24T23:20:19.485Z,95.90
2018-04-24T23:22:46.930Z,95.80
2018-04-24T23:25:14.393Z,95.80
2018-04-24T23:27:41.849Z,95.80
2018-04-24T23:30:09.310Z,95.80
2018-04-24T23:32:36.750Z,95.80
2018-04-24T23:35:04.227Z,95.70
2018-04-24T23:37:31.651Z,95.90
2018-04-24T23:39:59.091Z,95.80
2018-04-24T23:42:26.547Z,95.80
2018-04-24T23:44:54.019Z,95.80
2018-04-24T23:47:21.517Z,95.80
2018-04-24T23:49:49.001Z,95.90
2018-04-24T23:52:16.443Z,95.90
2018-04-24T23:54:43.881Z,95.90
2018-04-24T23:57:12.109Z,96.10
2018-04-24T23:59:39.551Z,96.10
